Time;durP1;ratioP1;P1;durP2;ratioP2;P2;SDS_P1;SDS_P2;PMS_P1;PMS_P2;Temp;Humidity;BMP_temperature;BMP_pressure;BME280_temperature;BME280_humidity;BME280_pressure;Samples;Min_cycle;Max_cycle;Signal;HPM_P1;HPM_P2
2022/03/13 00:01:47;;;;;;;25.50;17.33;;;9.30;40.40;;;;;;5075171;28;20568;-57
2022/03/13 00:04:14;;;;;;;20.00;16.67;;;9.30;40.40;;;;;;5075291;28;20207;-57
2022/03/13 00:06:43;;;;;;;18.58;16.33;;;9.30;40.30;;;;;;5075374;28;20236;-57
2022/03/13 00:09:14;;;;;;;18.42;15.77;;;9.30;40.10;;;;;;5074152;28;20550;-57
2022/03/13 00:11:43;;;;;;;17.45;15.35;;;9.20;40.30;;;;;;5075151;28;20534;-58
2022/03/13 00:14:10;;;;;;;21.80;17.83;;;9.20;40.10;;;;;;5075170;28;20254;-57
2022/03/13 00:16:38;;;;;;;21.13;16.80;;;9.20;39.90;;;;;;5074788;28;20196;-57
2022/03/13 00:19:06;;;;;;;17.90;15.90;;;9.20;39.90;;;;;;5075058;28;20204;-57
2022/03/13 00:21:35;;;;;;;22.40;16.65;;;9.20;40.20;;;;;;5074819;28;20229;-56
2022/03/13 00:24:02;;;;;;;17.65;14.57;;;9.20;39.90;;;;;;5073485;28;20659;-57
2022/03/13 00:26:35;;;;;;;22.90;16.92;;;9.10;39.50;;;;;;5074710;28;20209;-57
2022/03/13 00:29:02;;;;;;;21.67;17.52;;;9.00;39.60;;;;;;5074516;28;20235;-57
2022/03/13 00:31:28;;;;;;;18.13;15.85;;;9.00;39.70;;;;;;5074512;28;20315;-57
2022/03/13 00:33:55;;;;;;;23.27;15.93;;;9.00;39.70;;;;;;5074658;28;20304;-57
2022/03/13 00:36:23;;;;;;;22.35;18.77;;;8.90;39.70;;;;;;5074674;28;20208;-57
2022/03/13 00:38:49;;;;;;;33.90;24.27;;;8.90;40.30;;;;;;5073263;28;20295;-57
2022/03/13 00:41:16;;;;;;;47.85;30.75;;;8.80;40.50;;;;;;5074648;28;20228;-57
2022/03/13 00:43:45;;;;;;;39.60;28.02;;;8.70;40.50;;;;;;5074608;28;20679;-57
2022/03/13 00:46:12;;;;;;;37.80;26.67;;;8.70;40.60;;;;;;5074614;28;20204;-57
2022/03/13 00:48:41;;;;;;;28.80;22.40;;;8.70;40.80;;;;;;5073790;28;20296;-57
2022/03/13 00:51:07;;;;;;;20.15;17.85;;;8.60;40.70;;;;;;5074190;28;20235;-57
2022/03/13 00:53:34;;;;;;;23.60;18.08;;;8.50;40.40;;;;;;5073008;28;20711;-56
2022/03/13 00:56:01;;;;;;;18.77;16.05;;;8.40;40.10;;;;;;5074448;28;20648;-57
2022/03/13 00:58:28;;;;;;;21.38;16.58;;;8.20;40.10;;;;;;5074151;28;20209;-57
2022/03/13 01:00:56;;;;;;;18.23;14.90;;;8.10;40.70;;;;;;5074129;28;20254;-57
2022/03/13 01:03:31;;;;;;;18.85;15.27;;;7.90;40.20;;;;;;5074083;28;20316;-57
2022/03/13 01:05:58;;;;;;;19.40;15.10;;;7.70;40.20;;;;;;5074188;28;20204;-57
2022/03/13 01:08:25;;;;;;;18.33;14.52;;;7.70;40.10;;;;;;5072908;28;20222;-57
2022/03/13 01:10:52;;;;;;;19.10;14.93;;;7.60;40.10;;;;;;5073905;28;20256;-57
2022/03/13 01:13:21;;;;;;;17.38;13.80;;;7.50;40.20;;;;;;5074045;28;20258;-57
2022/03/13 01:15:48;;;;;;;18.40;15.05;;;7.40;40.90;;;;;;5073930;28;20237;-57
2022/03/13 01:18:17;;;;;;;17.60;15.02;;;7.20;41.40;;;;;;5065216;28;20202;-57
2022/03/13 01:20:47;;;;;;;19.35;15.73;;;7.10;41.30;;;;;;5069827;28;20638;-58
2022/03/13 01:23:15;;;;;;;18.60;15.20;;;6.90;41.60;;;;;;5072186;28;20237;-57
2022/03/13 01:25:42;;;;;;;17.35;15.60;;;6.80;41.90;;;;;;5073830;28;20201;-57
2022/03/13 01:28:09;;;;;;;18.75;15.23;;;6.70;42.20;;;;;;5073709;28;20669;-57
2022/03/13 01:30:36;;;;;;;18.75;15.50;;;6.70;41.70;;;;;;5073631;28;20264;-57
2022/03/13 01:33:03;;;;;;;17.77;14.90;;;6.60;42.10;;;;;;5073491;28;20205;-57
2022/03/13 01:35:31;;;;;;;17.65;15.75;;;6.60;42.20;;;;;;5073609;28;20205;-57
2022/03/13 01:37:58;;;;;;;17.63;15.70;;;6.60;42.10;;;;;;5072268;28;20204;-57
2022/03/13 01:40:25;;;;;;;20.60;15.45;;;6.50;42.30;;;;;;5073621;28;20632;-57
2022/03/13 01:42:54;;;;;;;17.25;15.38;;;6.50;42.60;;;;;;5073543;28;20208;-57
2022/03/13 01:45:25;;;;;;;17.83;16.10;;;6.40;42.50;;;;;;5073281;28;20633;-57
2022/03/13 01:47:52;;;;;;;21.35;15.75;;;6.50;42.70;;;;;;5073214;28;20241;-57
2022/03/13 01:50:19;;;;;;;20.45;15.50;;;6.50;42.70;;;;;;5073219;28;20225;-57
2022/03/13 01:52:49;;;;;;;17.10;15.30;;;6.40;42.90;;;;;;5071834;28;20292;-57
2022/03/13 01:55:17;;;;;;;19.92;15.23;;;6.50;42.80;;;;;;5073220;28;20211;-57
2022/03/13 01:57:45;;;;;;;22.98;17.42;;;6.60;42.60;;;;;;5073052;28;20205;-57
2022/03/13 02:00:13;;;;;;;21.92;16.08;;;6.60;42.10;;;;;;5072907;28;20212;-57
2022/03/13 02:02:46;;;;;;;18.63;16.40;;;6.60;42.20;;;;;;5072393;28;20203;-57
2022/03/13 02:05:30;;;;;;;17.48;14.85;;;6.70;42.40;;;;;;5072825;28;20224;-57
2022/03/13 02:08:00;;;;;;;18.58;16.10;;;6.80;42.40;;;;;;5071684;28;20219;-57
2022/03/13 02:10:27;;;;;;;17.23;15.43;;;6.80;42.10;;;;;;5072804;28;20229;-57
2022/03/13 02:12:55;;;;;;;19.92;15.60;;;6.70;41.90;;;;;;5072869;28;20215;-57
2022/03/13 02:15:22;;;;;;;20.13;16.25;;;6.70;42.10;;;;;;5072856;28;20758;-57
2022/03/13 02:17:49;;;;;;;17.45;15.07;;;6.70;42.50;;;;;;5072679;28;20693;-57
2022/03/13 02:20:22;;;;;;;18.83;15.25;;;6.70;42.60;;;;;;5072850;28;20295;-57
2022/03/13 02:22:52;;;;;;;18.00;15.25;;;6.60;42.50;;;;;;5071401;28;20232;-57
2022/03/13 02:25:23;;;;;;;17.73;15.52;;;6.50;42.80;;;;;;5073197;28;20204;-57
2022/03/13 02:27:50;;;;;;;18.70;15.52;;;6.50;43.70;;;;;;5072712;28;20201;-57
2022/03/13 02:30:17;;;;;;;17.20;15.40;;;6.40;43.40;;;;;;5072615;28;20224;-57
2022/03/13 02:32:44;;;;;;;18.35;15.25;;;6.30;44.10;;;;;;5072574;28;20201;-57
2022/03/13 02:35:12;;;;;;;19.60;15.93;;;6.20;43.80;;;;;;5072854;28;20200;-57
2022/03/13 02:37:41;;;;;;;21.35;16.63;;;6.20;44.40;;;;;;5071533;28;20205;-57
2022/03/13 02:40:17;;;;;;;21.17;16.45;;;6.20;44.30;;;;;;5072753;28;20630;-57
2022/03/13 02:42:44;;;;;;;22.33;16.63;;;6.20;44.90;;;;;;5072690;28;20287;-57
2022/03/13 02:45:12;;;;;;;23.15;16.02;;;6.10;45.30;;;;;;5072875;28;20620;-57
2022/03/13 02:47:39;;;;;;;22.88;17.40;;;6.00;45.40;;;;;;5072587;28;20212;-57
2022/03/13 02:50:06;;;;;;;22.08;16.77;;;6.00;45.20;;;;;;5072598;28;20244;-57
2022/03/13 02:52:33;;;;;;;23.65;17.00;;;6.20;45.40;;;;;;5071462;28;20211;-57
2022/03/13 02:55:00;;;;;;;21.88;17.60;;;6.10;45.90;;;;;;5072680;28;20307;-57
2022/03/13 02:57:28;;;;;;;22.25;17.77;;;6.10;45.70;;;;;;5072588;28;20659;-58
2022/03/13 02:59:55;;;;;;;23.27;16.83;;;6.10;45.90;;;;;;5072682;28;20279;-57
2022/03/13 03:02:22;;;;;;;27.60;17.73;;;6.10;45.60;;;;;;5072434;28;20667;-58
2022/03/13 03:04:53;;;;;;;22.58;17.73;;;6.10;45.80;;;;;;5072479;28;20295;-57
2022/03/13 03:07:20;;;;;;;23.77;18.17;;;6.00;46.20;;;;;;5071364;28;20287;-58
2022/03/13 03:09:47;;;;;;;22.98;17.63;;;6.00;46.30;;;;;;5072394;28;20659;-58
2022/03/13 03:12:14;;;;;;;24.08;16.38;;;6.00;46.40;;;;;;5073260;28;20234;-57
2022/03/13 03:14:43;;;;;;;24.88;18.67;;;6.00;46.60;;;;;;5076377;28;20563;-57
2022/03/13 03:17:09;;;;;;;26.92;18.90;;;6.00;46.90;;;;;;5076240;28;20232;-58
2022/03/13 03:19:37;;;;;;;26.13;17.88;;;5.90;47.30;;;;;;5076400;28;20232;-58
2022/03/13 03:22:04;;;;;;;30.70;19.65;;;5.80;47.70;;;;;;5075162;28;20275;-58
2022/03/13 03:24:31;;;;;;;23.40;17.90;;;5.70;48.10;;;;;;5076193;28;20568;-58
2022/03/13 03:26:58;;;;;;;24.77;17.10;;;5.70;48.70;;;;;;5076211;28;20552;-58
2022/03/13 03:29:26;;;;;;;23.40;16.88;;;5.70;49.00;;;;;;5076094;28;20711;-57
2022/03/13 03:31:55;;;;;;;23.92;18.52;;;5.60;49.40;;;;;;5076162;28;20319;-58
2022/03/13 03:34:24;;;;;;;27.58;17.95;;;5.50;49.50;;;;;;5075961;28;20200;-58
2022/03/13 03:36:52;;;;;;;28.85;18.48;;;5.50;49.80;;;;;;5075020;28;20207;-58
2022/03/13 03:39:20;;;;;;;22.63;17.20;;;5.50;49.80;;;;;;5076054;28;20200;-58
2022/03/13 03:41:49;;;;;;;26.48;19.00;;;5.50;50.00;;;;;;5075994;28;20205;-58
2022/03/13 03:44:16;;;;;;;26.35;19.13;;;5.50;50.00;;;;;;5075966;28;20300;-58
2022/03/13 03:46:45;;;;;;;23.25;17.15;;;5.50;50.20;;;;;;5075875;28;20211;-58
2022/03/13 03:49:13;;;;;;;23.92;17.60;;;5.50;50.40;;;;;;5075651;28;20299;-58
2022/03/13 03:51:40;;;;;;;24.33;18.52;;;5.60;50.30;;;;;;5075661;28;20233;-58
2022/03/13 03:54:08;;;;;;;23.77;18.02;;;5.60;50.20;;;;;;5074525;28;20796;-58
2022/03/13 03:56:35;;;;;;;22.65;17.83;;;5.70;50.20;;;;;;5075655;28;20540;-58
2022/03/13 03:59:02;;;;;;;23.42;18.17;;;5.70;50.10;;;;;;5075688;28;20716;-58
2022/03/13 04:01:37;;;;;;;24.23;17.30;;;5.70;50.20;;;;;;5075645;28;20296;-58
2022/03/13 04:04:05;;;;;;;21.17;16.70;;;5.70;50.30;;;;;;5075267;28;20754;-59
2022/03/13 04:06:34;;;;;;;25.70;17.88;;;5.70;50.50;;;;;;5075582;28;20287;-58
2022/03/13 04:09:01;;;;;;;26.75;19.02;;;5.70;50.90;;;;;;5074310;28;20211;-59
2022/03/13 04:11:28;;;;;;;26.27;17.08;;;5.70;51.10;;;;;;5075464;28;20593;-59
2022/03/13 04:13:55;;;;;;;22.63;16.83;;;5.70;51.30;;;;;;5075417;28;20588;-58
2022/03/13 04:16:22;;;;;;;24.13;17.27;;;5.70;51.30;;;;;;5075263;28;20208;-59
2022/03/13 04:18:48;;;;;;;21.80;17.25;;;5.70;51.70;;;;;;5075102;28;20208;-58
2022/03/13 04:21:16;;;;;;;23.73;17.67;;;5.60;52.00;;;;;;5075063;28;20303;-58
2022/03/13 04:23:44;;;;;;;25.63;18.30;;;5.60;52.40;;;;;;5073217;28;20205;-58
2022/03/13 04:26:11;;;;;;;24.70;18.25;;;5.60;52.60;;;;;;5075359;28;20726;-58
2022/03/13 04:28:38;;;;;;;23.80;17.88;;;5.50;52.60;;;;;;5075072;28;20599;-58
2022/03/13 04:31:05;;;;;;;23.77;15.88;;;5.50;52.60;;;;;;5074878;28;20220;-58
2022/03/13 04:33:34;;;;;;;22.80;17.65;;;5.50;52.50;;;;;;5074804;28;20235;-58
2022/03/13 04:36:03;;;;;;;22.02;18.10;;;5.40;52.50;;;;;;5075175;28;20201;-58
2022/03/13 04:38:30;;;;;;;22.60;16.80;;;5.30;52.50;;;;;;5073746;28;20291;-58
2022/03/13 04:40:58;;;;;;;25.88;17.05;;;5.30;52.60;;;;;;5074888;28;20300;-58
2022/03/13 04:43:26;;;;;;;23.77;18.13;;;5.20;52.90;;;;;;5074794;28;20209;-58
2022/03/13 04:45:54;;;;;;;23.33;17.30;;;5.10;53.20;;;;;;5074763;28;20207;-58
2022/03/13 04:48:21;;;;;;;25.77;17.10;;;5.00;53.60;;;;;;5074635;28;20259;-58
2022/03/13 04:50:48;;;;;;;18.85;16.50;;;4.90;54.10;;;;;;5074572;28;20643;-58
2022/03/13 04:53:16;;;;;;;24.02;16.98;;;4.80;54.70;;;;;;5073430;28;20762;-57
2022/03/13 04:55:43;;;;;;;26.42;18.65;;;4.80;55.30;;;;;;5074561;28;20560;-58
2022/03/13 04:58:11;;;;;;;29.65;18.35;;;4.80;55.80;;;;;;5074444;28;20208;-58
2022/03/13 05:00:39;;;;;;;30.10;18.58;;;4.90;56.30;;;;;;5074558;28;20288;-57
2022/03/13 05:03:07;;;;;;;32.72;20.17;;;4.90;56.50;;;;;;5074276;28;20685;-57
2022/03/13 05:05:35;;;;;;;27.55;17.85;;;5.00;56.50;;;;;;5074454;28;20212;-58
2022/03/13 05:08:03;;;;;;;27.52;19.40;;;5.00;56.30;;;;;;5073166;28;20291;-57
2022/03/13 05:10:35;;;;;;;25.38;17.25;;;5.00;56.40;;;;;;5074358;28;20200;-58
2022/03/13 05:13:02;;;;;;;27.98;19.30;;;4.90;57.00;;;;;;5074205;28;20225;-58
2022/03/13 05:15:31;;;;;;;20.88;17.17;;;4.90;57.20;;;;;;5074178;28;20201;-58
2022/03/13 05:17:57;;;;;;;25.67;19.55;;;4.90;57.60;;;;;;5073947;28;20325;-58
2022/03/13 05:20:24;;;;;;;25.50;18.70;;;4.90;57.80;;;;;;5074139;28;20201;-58
2022/03/13 05:22:51;;;;;;;27.70;18.58;;;4.90;57.80;;;;;;5072723;28;20239;-57
2022/03/13 05:25:18;;;;;;;24.48;18.52;;;4.90;58.00;;;;;;5073936;28;20240;-58
2022/03/13 05:27:45;;;;;;;29.23;19.67;;;4.90;58.20;;;;;;5073787;28;20506;-58
2022/03/13 05:30:13;;;;;;;25.95;18.55;;;4.80;58.20;;;;;;5073954;28;20211;-58
2022/03/13 05:32:41;;;;;;;26.23;20.15;;;4.70;58.70;;;;;;5073669;28;20235;-57
2022/03/13 05:35:10;;;;;;;25.95;17.98;;;4.60;58.90;;;;;;5073670;28;20200;-58
2022/03/13 05:37:37;;;;;;;24.42;17.90;;;4.70;59.00;;;;;;5072481;28;20283;-58
2022/03/13 05:40:05;;;;;;;27.48;18.85;;;4.70;59.00;;;;;;5073588;28;20211;-57
2022/03/13 05:42:31;;;;;;;29.02;19.15;;;4.70;59.10;;;;;;5073680;28;20227;-58
2022/03/13 05:44:58;;;;;;;27.63;18.33;;;4.70;59.40;;;;;;5073603;28;20572;-58
2022/03/13 05:47:25;;;;;;;28.10;19.65;;;4.50;60.10;;;;;;5073573;28;20564;-58
2022/03/13 05:49:56;;;;;;;24.23;16.70;;;4.40;60.70;;;;;;5073390;28;20211;-58
2022/03/13 05:52:22;;;;;;;27.60;18.77;;;4.40;61.00;;;;;;5072036;28;20232;-58
2022/03/13 05:54:49;;;;;;;29.27;20.02;;;4.50;61.60;;;;;;5073463;28;20288;-58
2022/03/13 05:57:16;;;;;;;26.08;19.75;;;4.60;62.00;;;;;;5073320;28;20681;-58
2022/03/13 05:59:43;;;;;;;29.90;19.65;;;4.60;62.00;;;;;;5073352;28;20262;-57
2022/03/13 06:02:10;;;;;;;26.23;19.48;;;4.80;61.90;;;;;;5073269;28;20240;-58
2022/03/13 06:04:37;;;;;;;28.08;20.13;;;4.90;61.50;;;;;;5073144;28;20208;-58
2022/03/13 06:07:05;;;;;;;27.08;20.25;;;4.80;61.90;;;;;;5071907;28;20235;-58
2022/03/13 06:09:33;;;;;;;28.88;21.27;;;4.70;63.20;;;;;;5073395;28;20210;-58
2022/03/13 06:12:00;;;;;;;25.98;19.92;;;4.70;63.90;;;;;;5073114;28;20232;-58
2022/03/13 06:14:27;;;;;;;26.13;18.67;;;4.70;64.10;;;;;;5073038;28;20204;-59
2022/03/13 06:16:54;;;;;;;27.85;19.95;;;4.70;64.00;;;;;;5072993;28;20212;-58
2022/03/13 06:19:21;;;;;;;32.97;22.35;;;4.90;63.90;;;;;;5072976;28;20296;-58
2022/03/13 06:21:49;;;;;;;30.73;20.02;;;4.90;63.80;;;;;;5072352;28;20264;-58
2022/03/13 06:24:18;;;;;;;27.10;20.38;;;5.00;63.70;;;;;;5072609;28;20201;-58
2022/03/13 06:26:45;;;;;;;27.08;19.45;;;5.00;63.80;;;;;;5072890;28;20764;-58
2022/03/13 06:29:14;;;;;;;31.13;20.90;;;4.90;64.30;;;;;;5072979;28;20201;-59
2022/03/13 06:31:41;;;;;;;32.13;20.65;;;4.90;64.60;;;;;;5072862;28;20256;-58
2022/03/13 06:34:08;;;;;;;23.55;18.73;;;4.70;64.80;;;;;;5072665;28;20227;-58
2022/03/13 06:36:39;;;;;;;26.98;20.65;;;4.70;64.90;;;;;;5072861;28;20208;-58
2022/03/13 06:39:06;;;;;;;27.50;19.75;;;4.80;64.60;;;;;;5071538;28;20211;-58
2022/03/13 06:41:34;;;;;;;27.33;20.33;;;4.90;64.00;;;;;;5072844;28;20211;-58
2022/03/13 06:44:01;;;;;;;29.52;20.85;;;4.90;63.90;;;;;;5072914;28;20562;-58
2022/03/13 06:46:27;;;;;;;31.90;20.13;;;5.00;63.60;;;;;;5072616;28;20714;-58
2022/03/13 06:48:54;;;;;;;28.42;20.30;;;5.10;63.40;;;;;;5072116;28;20645;-58
2022/03/13 06:51:21;;;;;;;28.17;21.02;;;5.10;63.10;;;;;;5072661;28;20204;-57
2022/03/13 06:53:48;;;;;;;32.30;22.30;;;5.10;63.20;;;;;;5071571;28;20250;-58
2022/03/13 06:56:15;;;;;;;27.70;19.92;;;5.20;63.30;;;;;;5072660;28;20659;-58
2022/03/13 06:58:43;;;;;;;28.02;20.50;;;5.30;63.10;;;;;;5072646;28;20664;-57
2022/03/13 07:01:10;;;;;;;27.55;20.08;;;5.30;62.30;;;;;;5072590;28;20296;-58
2022/03/13 07:03:37;;;;;;;29.25;20.13;;;5.20;62.00;;;;;;5072399;28;20219;-58
2022/03/13 07:06:04;;;;;;;30.52;20.75;;;5.20;61.80;;;;;;5072713;28;20283;-57
2022/03/13 07:08:32;;;;;;;28.95;20.17;;;5.10;61.50;;;;;;5071312;28;20200;-58
2022/03/13 07:10:59;;;;;;;28.27;20.25;;;5.00;62.30;;;;;;5072591;28;20196;-58
2022/03/13 07:13:32;;;;;;;25.55;19.27;;;4.90;62.30;;;;;;5072386;28;20237;-57
2022/03/13 07:16:00;;;;;;;26.23;19.50;;;4.90;61.90;;;;;;5072405;28;20642;-58
2022/03/13 07:18:27;;;;;;;29.13;19.75;;;4.90;62.10;;;;;;5072215;28;20652;-57
2022/03/13 07:20:55;;;;;;;26.70;19.23;;;4.90;61.80;;;;;;5072544;28;20240;-57
2022/03/13 07:23:22;;;;;;;27.17;20.27;;;4.90;61.80;;;;;;5070917;28;20239;-58
2022/03/13 07:25:50;;;;;;;30.25;19.42;;;4.90;61.60;;;;;;5072359;28;20213;-58
2022/03/13 07:28:16;;;;;;;23.80;18.45;;;4.80;61.90;;;;;;5072392;28;20403;-57
2022/03/13 07:30:43;;;;;;;27.27;21.08;;;4.70;62.50;;;;;;5072263;28;20207;-58
2022/03/13 07:33:12;;;;;;;28.17;20.02;;;4.70;62.50;;;;;;5072177;28;20232;-57
2022/03/13 07:35:39;;;;;;;26.77;18.40;;;4.70;63.00;;;;;;5072203;28;20205;-57
2022/03/13 07:38:06;;;;;;;25.58;20.35;;;4.60;63.30;;;;;;5071047;28;20204;-57
2022/03/13 07:40:33;;;;;;;29.10;21.80;;;4.70;62.90;;;;;;5072308;28;20215;-58
2022/03/13 07:43:00;;;;;;;27.50;20.23;;;4.90;62.50;;;;;;5072096;28;20215;-58
2022/03/13 07:45:27;;;;;;;25.80;20.55;;;5.00;61.70;;;;;;5072234;28;20247;-58
2022/03/13 07:47:55;;;;;;;25.77;20.05;;;5.10;61.00;;;;;;5072032;28;20237;-58
2022/03/13 07:50:27;;;;;;;28.85;19.52;;;5.20;60.50;;;;;;5072168;28;20201;-59
2022/03/13 07:52:54;;;;;;;31.75;20.40;;;5.30;60.10;;;;;;5070719;28;20228;-58
2022/03/13 07:55:22;;;;;;;30.58;20.10;;;5.40;59.70;;;;;;5072105;28;20291;-58
2022/03/13 07:57:49;;;;;;;23.08;19.50;;;5.60;59.20;;;;;;5071990;28;20212;-58
2022/03/13 08:00:17;;;;;;;25.02;19.75;;;5.60;58.90;;;;;;5074230;28;20208;-57
2022/03/13 08:02:46;;;;;;;26.05;19.50;;;5.60;58.80;;;;;;5075733;28;20239;-57
2022/03/13 08:05:13;;;;;;;23.58;19.50;;;5.70;59.10;;;;;;5075456;28;20209;-58
2022/03/13 08:07:41;;;;;;;29.33;19.70;;;5.70;58.90;;;;;;5074302;28;20295;-58
2022/03/13 08:10:10;;;;;;;26.88;19.75;;;5.80;58.90;;;;;;5075364;28;20197;-58
2022/03/13 08:12:38;;;;;;;25.40;19.25;;;5.90;58.80;;;;;;5075432;28;20264;-57
2022/03/13 08:15:06;;;;;;;32.88;20.67;;;5.90;58.70;;;;;;5075478;28;20230;-57
2022/03/13 08:17:34;;;;;;;23.90;19.33;;;6.10;58.30;;;;;;5075313;28;20655;-57
2022/03/13 08:20:02;;;;;;;22.90;19.70;;;6.20;58.30;;;;;;5075090;28;20206;-57
2022/03/13 08:22:29;;;;;;;27.00;20.88;;;6.30;57.70;;;;;;5073802;28;20308;-57
2022/03/13 08:24:57;;;;;;;27.40;19.83;;;6.50;56.90;;;;;;5075358;28;20208;-57
2022/03/13 08:27:24;;;;;;;22.20;18.80;;;6.60;56.80;;;;;;5075137;28;20231;-57
2022/03/13 08:29:50;;;;;;;26.50;19.85;;;6.60;56.60;;;;;;5075110;28;20675;-57
2022/03/13 08:32:17;;;;;;;25.08;19.85;;;6.70;56.00;;;;;;5075014;28;20260;-57
2022/03/13 08:34:45;;;;;;;23.75;18.80;;;6.80;55.80;;;;;;5074932;28;20207;-57
2022/03/13 08:37:13;;;;;;;22.83;18.20;;;6.90;55.20;;;;;;5073676;28;20208;-58
2022/03/13 08:39:40;;;;;;;25.08;19.67;;;7.10;55.60;;;;;;5074907;28;20624;-57
2022/03/13 08:42:09;;;;;;;24.35;18.77;;;7.20;55.20;;;;;;5074848;28;20627;-58
2022/03/13 08:44:36;;;;;;;26.85;21.30;;;7.40;55.00;;;;;;5074863;28;20300;-57
2022/03/13 08:47:04;;;;;;;28.42;20.70;;;7.50;54.90;;;;;;5074634;28;20208;-57
2022/03/13 08:49:31;;;;;;;28.27;20.85;;;7.60;55.40;;;;;;5074615;28;20201;-57
2022/03/13 08:51:58;;;;;;;25.27;18.35;;;7.80;54.80;;;;;;5073222;28;20588;-57
2022/03/13 08:54:25;;;;;;;29.48;20.77;;;7.90;54.20;;;;;;5074617;28;20886;-57
2022/03/13 08:56:52;;;;;;;25.27;20.13;;;8.00;54.20;;;;;;5074634;28;20205;-57
2022/03/13 08:59:20;;;;;;;30.73;20.48;;;8.10;54.40;;;;;;5074563;28;20634;-57
2022/03/13 09:01:47;;;;;;;25.05;20.17;;;8.20;54.40;;;;;;5074484;28;20212;-58
2022/03/13 09:04:14;;;;;;;35.88;19.75;;;8.30;53.70;;;;;;5074267;28;20243;-58
2022/03/13 09:06:43;;;;;;;26.63;20.30;;;8.40;53.40;;;;;;5074163;28;20200;-57
2022/03/13 09:09:10;;;;;;;34.20;20.48;;;8.50;53.50;;;;;;5072926;28;20205;-57
2022/03/13 09:11:37;;;;;;;25.13;20.17;;;8.50;53.40;;;;;;5073762;28;20200;-56
2022/03/13 09:14:04;;;;;;;26.30;20.88;;;8.60;53.70;;;;;;5074171;28;20689;-57
2022/03/13 09:16:37;;;;;;;25.33;20.67;;;8.70;53.60;;;;;;5074189;28;20231;-57
2022/03/13 09:19:04;;;;;;;25.17;19.05;;;8.90;53.90;;;;;;5073852;28;20205;-58
2022/03/13 09:21:33;;;;;;;31.02;21.27;;;9.00;53.10;;;;;;5073939;28;20235;-58
2022/03/13 09:24:01;;;;;;;28.05;21.58;;;9.20;53.20;;;;;;5072811;28;20218;-59
2022/03/13 09:26:28;;;;;;;27.17;19.30;;;9.30;52.50;;;;;;5073838;28;20567;-58
2022/03/13 09:28:54;;;;;;;28.00;20.58;;;9.30;52.70;;;;;;5073813;28;20292;-58
2022/03/13 09:31:21;;;;;;;28.80;21.17;;;9.40;52.00;;;;;;5073837;28;20287;-58
2022/03/13 09:33:49;;;;;;;27.05;19.88;;;9.60;52.10;;;;;;5073590;28;20260;-58
2022/03/13 09:36:16;;;;;;;29.67;21.73;;;9.80;51.50;;;;;;5073805;28;20571;-58
2022/03/13 09:38:43;;;;;;;26.75;20.00;;;9.90;50.80;;;;;;5072467;28;20308;-57
2022/03/13 09:41:10;;;;;;;25.58;20.65;;;10.00;50.90;;;;;;5073632;28;20675;-58
2022/03/13 09:43:37;;;;;;;29.95;20.98;;;10.00;50.90;;;;;;5073613;28;20201;-58
2022/03/13 09:46:04;;;;;;;30.02;21.60;;;10.20;50.30;;;;;;5073493;28;20667;-57
2022/03/13 09:48:31;;;;;;;27.60;20.98;;;10.00;49.60;;;;;;5073409;28;20205;-58
2022/03/13 09:51:00;;;;;;;28.75;21.60;;;10.10;50.80;;;;;;5073603;28;20236;-58
2022/03/13 09:53:27;;;;;;;25.63;20.52;;;10.20;50.20;;;;;;5071991;28;20239;-58
2022/03/13 09:55:54;;;;;;;27.80;20.55;;;10.30;50.60;;;;;;5073356;28;20570;-58
2022/03/13 09:58:21;;;;;;;30.38;21.90;;;10.50;50.30;;;;;;5073305;28;20251;-58
2022/03/13 10:00:48;;;;;;;28.98;20.90;;;10.70;49.90;;;;;;5073186;28;20295;-57
2022/03/13 10:03:15;;;;;;;23.67;20.75;;;10.80;49.60;;;;;;5073353;28;20291;-58
2022/03/13 10:05:43;;;;;;;27.45;22.70;;;10.90;49.00;;;;;;5073068;28;20284;-58
2022/03/13 10:08:12;;;;;;;29.85;22.63;;;11.20;50.00;;;;;;5071927;28;20211;-57
2022/03/13 10:10:44;;;;;;;25.33;21.95;;;11.40;49.50;;;;;;5073270;28;20239;-60
2022/03/13 10:13:13;;;;;;;28.23;21.58;;;11.60;48.20;;;;;;5072865;28;20232;-60
2022/03/13 10:15:42;;;;;;;23.73;21.23;;;11.70;46.50;;;;;;5073083;28;20204;-60
2022/03/13 10:18:13;;;;;;;33.22;22.23;;;11.80;46.60;;;;;;5073003;28;20204;-60
2022/03/13 10:20:41;;;;;;;26.58;21.25;;;12.00;47.80;;;;;;5072913;28;20279;-60
2022/03/13 10:23:11;;;;;;;26.20;20.25;;;12.20;46.60;;;;;;5070780;28;20231;-60
2022/03/13 10:25:41;;;;;;;26.02;20.50;;;12.40;47.90;;;;;;5072868;28;20311;-60
2022/03/13 10:28:16;;;;;;;27.60;21.83;;;12.60;47.00;;;;;;5072978;28;20222;-60
2022/03/13 10:30:45;;;;;;;27.85;22.02;;;12.90;47.50;;;;;;5072969;28;20286;-60
2022/03/13 10:33:12;;;;;;;29.77;22.08;;;13.20;46.10;;;;;;5072865;28;20574;-60
2022/03/13 10:35:40;;;;;;;31.42;22.08;;;13.40;46.40;;;;;;5072713;28;20205;-60
2022/03/13 10:38:15;;;;;;;29.40;22.30;;;13.60;45.80;;;;;;5071521;28;20254;-60
2022/03/13 10:40:45;;;;;;;27.35;21.77;;;13.80;46.40;;;;;;5072776;28;20204;-60
2022/03/13 10:43:18;;;;;;;27.75;21.60;;;13.90;44.80;;;;;;5072825;28;20209;-60
2022/03/13 10:45:51;;;;;;;26.02;22.15;;;14.10;43.90;;;;;;5072640;28;20668;-60
2022/03/13 10:48:28;;;;;;;28.80;21.77;;;14.10;43.50;;;;;;5072509;28;20288;-60
2022/03/13 10:50:56;;;;;;;24.42;21.20;;;14.30;44.30;;;;;;5072545;28;20207;-60
2022/03/13 10:53:23;;;;;;;28.25;22.25;;;14.40;44.60;;;;;;5071310;28;20228;-60
2022/03/13 10:56:09;;;;;;;28.67;22.80;;;14.60;42.90;;;;;;5072599;28;20201;-60
2022/03/13 10:58:38;;;;;;;29.42;23.42;;;14.70;42.20;;;;;;5072649;28;20288;-60
2022/03/13 11:01:07;;;;;;;28.45;21.85;;;14.80;42.10;;;;;;5072621;28;20675;-60
2022/03/13 11:03:35;;;;;;;30.48;24.27;;;14.80;42.40;;;;;;5072368;28;20243;-59
2022/03/13 11:06:02;;;;;;;27.38;21.38;;;15.00;42.80;;;;;;5072650;28;20208;-60
2022/03/13 11:08:29;;;;;;;29.08;21.52;;;15.10;42.30;;;;;;5071244;28;20204;-60
2022/03/13 11:10:58;;;;;;;31.90;23.05;;;15.10;42.00;;;;;;5072549;28;20283;-60
2022/03/13 11:13:28;;;;;;;24.70;21.48;;;15.30;42.10;;;;;;5072383;28;20319;-60
2022/03/13 11:15:57;;;;;;;27.97;22.30;;;15.50;40.30;;;;;;5072406;28;20201;-60
2022/03/13 11:18:30;;;;;;;25.70;19.90;;;15.60;41.30;;;;;;5072396;28;20459;-60
2022/03/13 11:20:57;;;;;;;28.47;22.33;;;15.80;41.20;;;;;;5072184;28;20449;-60
2022/03/13 11:23:24;;;;;;;30.73;21.97;;;16.00;40.50;;;;;;5070953;28;20577;-60
2022/03/13 11:25:52;;;;;;;28.63;22.03;;;16.70;39.40;;;;;;5072327;28;20510;-60
2022/03/13 11:28:19;;;;;;;26.50;22.77;;;18.10;38.00;;;;;;5072379;28;20459;-60
2022/03/13 11:30:48;;;;;;;29.67;23.40;;;19.90;35.40;;;;;;5072400;28;20451;-58
2022/03/13 11:33:34;;;;;;;28.90;21.80;;;21.80;33.70;;;;;;5072944;28;20490;-58
2022/03/13 11:36:29;;;;;;;30.30;24.30;;;23.60;31.10;;;;;;5075936;28;20462;-58
2022/03/13 11:38:57;;;;;;;24.10;21.50;;;25.30;30.40;;;;;;5060926;28;20451;-58
2022/03/13 11:41:38;;;;;;;28.57;23.40;;;26.30;26.00;;;;;;5075959;28;20466;-58
2022/03/13 11:44:28;;;;;;;34.13;24.67;;;26.80;26.70;;;;;;5075906;28;20950;-58
2022/03/13 11:46:58;;;;;;;27.83;24.40;;;27.70;27.10;;;;;;5075705;28;20442;-58
2022/03/13 11:49:37;;;;;;;26.13;23.43;;;28.40;25.40;;;;;;5075716;28;20435;-58
2022/03/13 11:52:25;;;;;;;27.77;23.73;;;28.70;24.90;;;;;;5074504;28;20441;-58
2022/03/13 11:54:57;;;;;;;31.60;24.67;;;29.30;24.40;;;;;;5067173;28;20596;-58
2022/03/13 11:57:25;;;;;;;27.83;22.90;;;28.90;23.60;;;;;;5075718;28;20459;-58
2022/03/13 12:00:23;;;;;;;25.03;22.43;;;28.70;22.50;;;;;;5075625;28;20534;-58
2022/03/13 12:02:51;;;;;;;25.50;22.47;;;28.60;23.30;;;;;;5075487;28;20453;-58
2022/03/13 12:05:28;;;;;;;25.33;22.03;;;28.00;23.30;;;;;;5075415;28;20464;-58
2022/03/13 12:07:56;;;;;;;23.60;20.00;;;28.30;23.10;;;;;;5074145;28;20527;-58
2022/03/13 12:10:30;;;;;;;23.20;20.80;;;28.50;23.00;;;;;;5075483;28;20441;-58
2022/03/13 12:13:04;;;;;;;23.07;20.70;;;28.40;23.00;;;;;;5075401;28;20806;-58
2022/03/13 12:15:31;;;;;;;23.43;20.87;;;27.20;22.20;;;;;;5075322;28;20940;-58
2022/03/13 12:18:01;;;;;;;24.50;20.50;;;26.60;23.90;;;;;;5075228;28;20536;-59
2022/03/13 12:20:31;;;;;;;26.00;23.20;;;26.20;22.90;;;;;;5074822;28;20529;-59
2022/03/13 12:22:59;;;;;;;25.70;22.80;;;25.30;24.30;;;;;;5073771;28;20481;-58
2022/03/13 12:25:27;;;;;;;28.97;25.20;;;24.60;24.00;;;;;;5075172;28;20471;-58
2022/03/13 12:27:54;;;;;;;27.60;23.83;;;24.10;24.80;;;;;;5075116;28;20450;-58
2022/03/13 12:30:26;;;;;;;26.80;24.03;;;23.50;25.40;;;;;;5075151;28;20450;-60
2022/03/13 12:32:58;;;;;;;25.10;22.00;;;22.70;26.60;;;;;;5075129;28;20443;-58
2022/03/13 12:35:28;;;;;;;26.23;22.47;;;22.50;26.60;;;;;;5074755;28;20495;-60
2022/03/13 12:37:55;;;;;;;25.23;22.20;;;22.00;27.20;;;;;;5073801;28;20446;-58
2022/03/13 12:40:24;;;;;;;27.30;23.50;;;21.80;27.80;;;;;;5074864;28;20447;-60
2022/03/13 12:42:54;;;;;;;25.57;22.43;;;21.70;27.90;;;;;;5074935;28;20520;-60